createdAt,value
2018-11-06T00:05:00.000Z,11.5
2018-11-06T00:10:00.000Z,11.5
2018-11-06T00:15:00.000Z,11.5
2018-11-06T00:20:00.000Z,11.4
2018-11-06T00:25:00.000Z,11.4
2018-11-06T00:30:00.000Z,11.4
2018-11-06T00:35:00.000Z,11.4
2018-11-06T00:40:00.000Z,11.4
2018-11-06T00:45:00.000Z,11.4
2018-11-06T00:50:00.000Z,11.3
2018-11-06T00:55:00.000Z,11.3
2018-11-06T01:00:00.000Z,11.3
2018-11-06T01:05:00.000Z,11.2
2018-11-06T01:10:00.000Z,11.2
2018-11-06T01:15:00.000Z,11.2
2018-11-06T01:20:00.000Z,11.2
2018-11-06T01:25:00.000Z,11.2
2018-11-06T01:30:00.000Z,11.2
2018-11-06T01:35:00.000Z,11.2
2018-11-06T01:40:00.000Z,11.2
2018-11-06T01:45:00.000Z,11.2
2018-11-06T01:50:00.000Z,11.2
2018-11-06T01:55:00.000Z,11.2
2018-11-06T02:00:00.000Z,11.1
2018-11-06T02:05:00.000Z,11.1
2018-11-06T02:10:00.000Z,11.1
2018-11-06T02:15:00.000Z,11.1
2018-11-06T02:20:00.000Z,11.1
2018-11-06T02:25:00.000Z,11.0
2018-11-06T02:30:00.000Z,11.0
2018-11-06T02:35:00.000Z,11.0
2018-11-06T02:40:00.000Z,11.0
2018-11-06T02:45:00.000Z,10.9
2018-11-06T02:50:00.000Z,10.9
2018-11-06T02:55:00.000Z,10.8
2018-11-06T03:00:00.000Z,10.8
2018-11-06T03:05:00.000Z,10.7
2018-11-06T03:10:00.000Z,10.7
2018-11-06T03:15:00.000Z,10.7
2018-11-06T03:20:00.000Z,10.7
2018-11-06T03:25:00.000Z,10.7
2018-11-06T03:30:00.000Z,10.7
2018-11-06T03:35:00.000Z,10.8
2018-11-06T03:40:00.000Z,10.8
2018-11-06T03:45:00.000Z,10.8
2018-11-06T03:50:00.000Z,10.8
2018-11-06T03:55:00.000Z,10.8
2018-11-06T04:00:00.000Z,10.8
2018-11-06T04:05:00.000Z,10.9
2018-11-06T04:10:00.000Z,10.9
2018-11-06T04:15:00.000Z,10.8
2018-11-06T04:20:00.000Z,10.8
2018-11-06T04:25:00.000Z,10.7
2018-11-06T04:30:00.000Z,10.8
2018-11-06T04:35:00.000Z,10.8
2018-11-06T04:40:00.000Z,10.8
2018-11-06T04:45:00.000Z,10.8
2018-11-06T04:50:00.000Z,10.8
2018-11-06T04:55:00.000Z,10.9
2018-11-06T05:00:00.000Z,10.9
2018-11-06T05:05:00.000Z,10.9
2018-11-06T05:10:00.000Z,11.0
2018-11-06T05:15:00.000Z,11.0
2018-11-06T05:20:00.000Z,11.0
2018-11-06T05:25:00.000Z,11.0
2018-11-06T05:30:00.000Z,11.0
2018-11-06T05:35:00.000Z,11.0
2018-11-06T05:40:00.000Z,11.0
2018-11-06T05:45:00.000Z,10.9
2018-11-06T05:50:00.000Z,10.8
2018-11-06T05:55:00.000Z,10.8
2018-11-06T06:01:00.000Z,10.7
2018-11-06T06:06:00.000Z,10.7
2018-11-06T06:11:00.000Z,10.7
2018-11-06T06:16:00.000Z,10.7
2018-11-06T06:21:00.000Z,10.6
2018-11-06T06:26:00.000Z,10.6
2018-11-06T06:31:00.000Z,10.6
2018-11-06T06:36:00.000Z,10.5
2018-11-06T06:41:00.000Z,10.5
2018-11-06T06:46:00.000Z,10.5
2018-11-06T06:51:00.000Z,10.5
2018-11-06T06:56:00.000Z,10.5
2018-11-06T07:01:00.000Z,10.6
2018-11-06T07:06:00.000Z,10.6
2018-11-06T07:11:00.000Z,10.7
2018-11-06T07:16:00.000Z,10.7
2018-11-06T07:21:00.000Z,10.8
2018-11-06T07:26:00.000Z,10.9
2018-11-06T07:31:00.000Z,10.9
2018-11-06T07:36:00.000Z,11.0
2018-11-06T07:41:00.000Z,11.1
2018-11-06T07:46:00.000Z,11.1
2018-11-06T07:51:00.000Z,11.2
2018-11-06T07:56:00.000Z,11.4
2018-11-06T08:01:00.000Z,11.5
2018-11-06T08:06:00.000Z,11.6
2018-11-06T08:11:00.000Z,11.8
2018-11-06T08:16:00.000Z,12.0
2018-11-06T08:21:00.000Z,12.2
2018-11-06T08:26:00.000Z,12.3
2018-11-06T08:31:00.000Z,12.5
2018-11-06T08:36:00.000Z,12.6
2018-11-06T08:41:00.000Z,12.8
2018-11-06T08:46:00.000Z,12.8
2018-11-06T08:51:00.000Z,13.0
2018-11-06T08:56:00.000Z,13.1
2018-11-06T09:01:00.000Z,13.2
2018-11-06T09:06:00.000Z,13.2
2018-11-06T09:11:00.000Z,13.3
2018-11-06T09:16:00.000Z,13.6
2018-11-06T09:21:00.000Z,14.2
2018-11-06T09:26:00.000Z,14.4
2018-11-06T09:31:00.000Z,14.4
2018-11-06T09:36:00.000Z,14.5
2018-11-06T09:41:00.000Z,15.2
2018-11-06T09:46:00.000Z,16.3
2018-11-06T09:51:00.000Z,17.2
2018-11-06T09:56:00.000Z,17.8
2018-11-06T10:01:00.000Z,18.4
2018-11-06T10:06:00.000Z,18.7
2018-11-06T10:11:00.000Z,18.9
2018-11-06T10:16:00.000Z,18.9
2018-11-06T10:21:00.000Z,18.9
2018-11-06T10:26:00.000Z,18.9
2018-11-06T10:31:00.000Z,19.0
2018-11-06T10:36:00.000Z,19.0
2018-11-06T10:41:00.000Z,18.9
2018-11-06T10:46:00.000Z,19.0
2018-11-06T10:51:00.000Z,19.0
2018-11-06T10:56:00.000Z,19.0
2018-11-06T11:01:00.000Z,18.8
2018-11-06T11:06:00.000Z,18.7
2018-11-06T11:11:00.000Z,18.6
2018-11-06T11:16:00.000Z,18.5
2018-11-06T11:21:00.000Z,18.4
2018-11-06T11:26:00.000Z,18.1
2018-11-06T11:31:00.000Z,17.8
2018-11-06T11:37:00.000Z,17.6
2018-11-06T11:42:00.000Z,17.3
2018-11-06T11:47:00.000Z,17.0
2018-11-06T11:52:00.000Z,16.9
2018-11-06T11:57:00.000Z,16.8
2018-11-06T12:02:00.000Z,16.8
2018-11-06T12:07:00.000Z,16.8
2018-11-06T12:12:00.000Z,16.9
2018-11-06T12:17:00.000Z,16.9
2018-11-06T12:22:00.000Z,16.9
2018-11-06T12:27:00.000Z,16.9
2018-11-06T12:32:00.000Z,17.0
2018-11-06T12:37:00.000Z,17.0
2018-11-06T12:42:00.000Z,17.1
2018-11-06T12:47:00.000Z,17.2
2018-11-06T12:52:00.000Z,17.3
2018-11-06T12:57:00.000Z,17.4
2018-11-06T13:02:00.000Z,17.4
2018-11-06T13:07:00.000Z,17.3
2018-11-06T13:12:00.000Z,17.2
2018-11-06T13:17:00.000Z,17.2
2018-11-06T13:22:00.000Z,17.1
2018-11-06T13:27:00.000Z,17.1
2018-11-06T13:32:00.000Z,17.0
2018-11-06T13:37:00.000Z,16.9
2018-11-06T13:42:00.000Z,16.8
2018-11-06T13:47:00.000Z,16.7
2018-11-06T13:52:00.000Z,16.7
2018-11-06T13:57:00.000Z,16.6
2018-11-06T14:02:00.000Z,16.5
2018-11-06T14:07:00.000Z,16.4
2018-11-06T14:12:00.000Z,16.3
2018-11-06T14:17:00.000Z,16.2
2018-11-06T14:22:00.000Z,16.1
2018-11-06T14:27:00.000Z,16.0
2018-11-06T14:32:00.000Z,16.0
2018-11-06T14:37:00.000Z,15.9
2018-11-06T14:42:00.000Z,15.8
2018-11-06T14:47:00.000Z,15.8
2018-11-06T14:52:00.000Z,15.7
2018-11-06T14:57:00.000Z,15.7
2018-11-06T15:02:00.000Z,15.6
2018-11-06T15:07:00.000Z,15.5
2018-11-06T15:12:00.000Z,15.4
2018-11-06T15:17:00.000Z,15.3
2018-11-06T15:22:00.000Z,15.2
2018-11-06T15:27:00.000Z,15.1
2018-11-06T15:32:00.000Z,15.1
2018-11-06T15:37:00.000Z,15.0
2018-11-06T15:42:00.000Z,14.9
2018-11-06T15:47:00.000Z,14.9
2018-11-06T15:52:00.000Z,14.8
2018-11-06T15:57:00.000Z,14.8
2018-11-06T16:02:00.000Z,14.7
2018-11-06T16:07:00.000Z,14.7
2018-11-06T16:12:00.000Z,14.6
2018-11-06T16:17:00.000Z,14.5
2018-11-06T16:22:00.000Z,14.5
2018-11-06T16:27:00.000Z,14.4
2018-11-06T16:32:00.000Z,14.4
2018-11-06T16:37:00.000Z,14.3
2018-11-06T16:43:00.000Z,14.2
2018-11-06T16:48:00.000Z,14.2
2018-11-06T16:53:00.000Z,14.1
2018-11-06T16:58:00.000Z,14.1
2018-11-06T17:03:00.000Z,14.0
2018-11-06T17:08:00.000Z,14.0
2018-11-06T17:13:00.000Z,13.9
2018-11-06T17:18:00.000Z,13.8
2018-11-06T17:23:00.000Z,13.8
2018-11-06T17:28:00.000Z,13.7
2018-11-06T17:33:00.000Z,13.7
2018-11-06T17:38:00.000Z,13.6
2018-11-06T17:43:00.000Z,13.5
2018-11-06T17:48:00.000Z,13.5
2018-11-06T17:53:00.000Z,13.4
2018-11-06T17:58:00.000Z,13.4
2018-11-06T18:03:00.000Z,13.3
2018-11-06T18:13:00.000Z,13.2
2018-11-06T18:18:00.000Z,13.1
2018-11-06T18:23:00.000Z,13.1
2018-11-06T18:28:00.000Z,13.0
2018-11-06T18:33:00.000Z,12.9
2018-11-06T18:38:00.000Z,12.9
2018-11-06T18:43:00.000Z,12.8
2018-11-06T18:48:00.000Z,12.7
2018-11-06T18:53:00.000Z,12.7
2018-11-06T18:58:00.000Z,12.7
2018-11-06T19:03:00.000Z,12.6
2018-11-06T19:08:00.000Z,12.6
2018-11-06T19:13:00.000Z,12.5
2018-11-06T19:18:00.000Z,12.5
2018-11-06T19:23:00.000Z,12.5
2018-11-06T19:28:00.000Z,12.4
2018-11-06T19:33:00.000Z,12.4
2018-11-06T19:38:00.000Z,12.4
2018-11-06T19:43:00.000Z,12.4
2018-11-06T19:48:00.000Z,12.4
2018-11-06T19:53:00.000Z,12.4
2018-11-06T19:58:00.000Z,12.3
2018-11-06T20:03:00.000Z,12.3
2018-11-06T20:08:00.000Z,12.3
2018-11-06T20:13:00.000Z,12.2
2018-11-06T20:18:00.000Z,12.2
2018-11-06T20:23:00.000Z,12.2
2018-11-06T20:28:00.000Z,12.2
2018-11-06T20:33:00.000Z,12.2
2018-11-06T20:38:00.000Z,12.2
2018-11-06T20:43:00.000Z,12.1
2018-11-06T20:48:00.000Z,12.1
2018-11-06T20:53:00.000Z,12.1
2018-11-06T20:58:00.000Z,12.1
2018-11-06T21:03:00.000Z,12.1
2018-11-06T21:08:00.000Z,12.0
2018-11-06T21:13:00.000Z,12.0
2018-11-06T21:18:00.000Z,11.9
2018-11-06T21:23:00.000Z,11.9
2018-11-06T21:28:00.000Z,11.9
2018-11-06T21:34:00.000Z,11.9
2018-11-06T21:39:00.000Z,11.9
2018-11-06T21:44:00.000Z,11.8
2018-11-06T21:49:00.000Z,11.8
2018-11-06T21:54:00.000Z,11.7
2018-11-06T21:59:00.000Z,11.7
2018-11-06T22:04:00.000Z,11.6
2018-11-06T22:09:00.000Z,11.6
2018-11-06T22:14:00.000Z,11.5
2018-11-06T22:19:00.000Z,11.5
2018-11-06T22:24:00.000Z,11.5
2018-11-06T22:29:00.000Z,11.5
2018-11-06T22:34:00.000Z,11.5
2018-11-06T22:39:00.000Z,11.4
2018-11-06T22:44:00.000Z,11.4
2018-11-06T22:49:00.000Z,11.3
2018-11-06T22:54:00.000Z,11.3
2018-11-06T22:59:00.000Z,11.2
2018-11-06T23:04:00.000Z,11.2
2018-11-06T23:09:00.000Z,11.2
2018-11-06T23:14:00.000Z,11.1
2018-11-06T23:19:00.000Z,11.1
2018-11-06T23:24:00.000Z,11.1
2018-11-06T23:29:00.000Z,11.1
2018-11-06T23:34:00.000Z,11.0
2018-11-06T23:39:00.000Z,11.0
2018-11-06T23:44:00.000Z,11.0
2018-11-06T23:49:00.000Z,11.0
2018-11-06T23:54:00.000Z,11.0
2018-11-06T23:59:00.000Z,11.0
